createdAt,value
2022-12-28T00:01:17.899Z,0.30
2022-12-28T00:03:45.843Z,0.40
2022-12-28T00:06:13.469Z,0.30
2022-12-28T00:08:40.850Z,0.20
2022-12-28T00:11:12.292Z,0.20
2022-12-28T00:13:45.989Z,0.20
2022-12-28T00:16:15.579Z,0.20
2022-12-28T00:18:42.817Z,0.20
2022-12-28T00:21:09.667Z,0.10
2022-12-28T00:23:36.545Z,0.10
2022-12-28T00:26:10.869Z,0.10
2022-12-28T00:28:37.979Z,0.10
2022-12-28T00:31:05.303Z,0.10
2022-12-28T00:33:32.497Z,0.00
2022-12-28T00:36:00.284Z,0.00
2022-12-28T00:38:28.007Z,0.00
2022-12-28T00:40:54.997Z,-0.10
2022-12-28T00:43:22.070Z,0.00
2022-12-28T00:45:49.397Z,-0.10
2022-12-28T00:48:16.533Z,-0.10
2022-12-28T00:50:43.986Z,-0.10
2022-12-28T00:53:11.390Z,-0.10
2022-12-28T00:55:38.845Z,0.00
2022-12-28T00:58:06.342Z,-0.10
2022-12-28T01:00:33.917Z,-0.10
2022-12-28T01:03:00.935Z,-0.20
2022-12-28T01:05:28.187Z,-0.20
2022-12-28T01:07:55.309Z,-0.20
2022-12-28T01:10:22.489Z,-0.10
2022-12-28T01:12:49.326Z,-0.10
2022-12-28T01:15:16.237Z,-0.10
2022-12-28T01:17:43.148Z,-0.20
2022-12-28T01:20:10.551Z,-0.20
2022-12-28T01:22:37.613Z,-0.20
2022-12-28T01:25:04.969Z,-0.20
2022-12-28T01:27:32.351Z,-0.20
2022-12-28T01:29:59.198Z,-0.20
2022-12-28T01:32:26.203Z,-0.30
2022-12-28T01:34:53.093Z,-0.30
2022-12-28T01:37:20.169Z,-0.30
2022-12-28T01:39:47.119Z,-0.30
2022-12-28T01:42:18.812Z,-0.40
2022-12-28T01:44:47.219Z,-0.40
2022-12-28T01:47:15.567Z,-0.40
2022-12-28T01:49:52.274Z,-0.40
2022-12-28T01:52:19.856Z,-0.40
2022-12-28T01:54:51.147Z,-0.50
2022-12-28T01:57:19.221Z,-0.50
2022-12-28T01:59:48.712Z,-0.50
2022-12-28T02:02:16.300Z,-0.50
2022-12-28T02:04:44.157Z,-0.50
2022-12-28T02:07:12.131Z,-0.50
2022-12-28T02:09:40.395Z,-0.50
2022-12-28T02:12:08.526Z,-0.50
2022-12-28T02:14:35.833Z,-0.50
2022-12-28T02:17:02.929Z,-0.50
2022-12-28T02:19:35.904Z,-0.50
2022-12-28T02:22:08.970Z,-0.50
2022-12-28T02:24:42.078Z,-0.60
2022-12-28T02:27:21.379Z,-0.60
2022-12-28T02:30:02.110Z,-0.60
2022-12-28T02:32:40.950Z,-0.50
2022-12-28T02:35:12.189Z,-0.60
2022-12-28T02:37:49.751Z,-0.50
2022-12-28T02:40:16.764Z,-0.50
2022-12-28T02:42:44.987Z,-0.50
2022-12-28T02:45:49.603Z,-0.60
2022-12-28T02:48:34.871Z,-0.70
2022-12-28T02:51:20.770Z,-0.80
2022-12-28T02:54:00.551Z,-0.70
2022-12-28T02:56:51.234Z,-0.70
2022-12-28T02:59:29.405Z,-0.70
2022-12-28T03:02:15.183Z,-0.80
2022-12-28T03:04:42.184Z,-0.80
2022-12-28T03:07:27.684Z,-0.80
2022-12-28T03:09:57.623Z,-0.80
2022-12-28T03:12:32.164Z,-0.80
2022-12-28T03:15:11.464Z,-0.80
2022-12-28T03:17:57.879Z,-0.90
2022-12-28T03:20:45.163Z,-0.90
2022-12-28T03:23:31.897Z,-1.00
2022-12-28T03:26:19.082Z,-1.00
2022-12-28T03:29:05.489Z,-1.00
2022-12-28T03:31:32.929Z,-1.10
2022-12-28T03:34:09.227Z,-1.00
2022-12-28T03:36:44.547Z,-1.00
2022-12-28T03:39:11.534Z,-1.00
2022-12-28T03:41:41.825Z,-1.00
2022-12-28T03:44:21.401Z,-1.00
2022-12-28T03:46:57.510Z,-1.00
2022-12-28T03:49:25.096Z,-1.00
2022-12-28T03:51:52.616Z,-1.00
2022-12-28T03:54:19.548Z,-1.00
2022-12-28T03:56:48.025Z,-1.00
2022-12-28T03:59:15.576Z,-1.10
2022-12-28T04:01:42.807Z,-1.10
2022-12-28T04:04:10.032Z,-1.10
2022-12-28T04:06:36.961Z,-1.20
2022-12-28T04:09:04.851Z,-1.20
2022-12-28T04:11:31.903Z,-1.20
2022-12-28T04:13:58.959Z,-1.20
2022-12-28T04:16:26.058Z,-1.30
2022-12-28T04:18:53.325Z,-1.20
2022-12-28T04:21:20.426Z,-1.30
2022-12-28T04:23:47.522Z,-1.30
2022-12-28T04:26:15.218Z,-1.40
2022-12-28T04:28:42.327Z,-1.40
2022-12-28T04:31:10.933Z,-1.40
2022-12-28T04:33:38.341Z,-1.40
2022-12-28T04:36:06.933Z,-1.40
2022-12-28T04:38:34.439Z,-1.40
2022-12-28T04:41:01.926Z,-1.40
2022-12-28T04:43:31.032Z,-1.40
2022-12-28T04:45:58.638Z,-1.30
2022-12-28T04:48:26.268Z,-1.40
2022-12-28T04:50:54.071Z,-1.30
2022-12-28T04:53:21.036Z,-1.30
2022-12-28T04:55:47.926Z,-1.30
2022-12-28T04:58:15.109Z,-1.30
2022-12-28T05:00:42.406Z,-1.30
2022-12-28T05:03:09.541Z,-1.30
2022-12-28T05:05:38.257Z,-1.30
2022-12-28T05:08:05.456Z,-1.30
2022-12-28T05:10:32.291Z,-1.40
2022-12-28T05:12:59.183Z,-1.30
2022-12-28T05:15:26.103Z,-1.40
2022-12-28T05:17:54.716Z,-1.30
2022-12-28T05:20:21.656Z,-1.40
2022-12-28T05:22:48.586Z,-1.30
2022-12-28T05:25:15.604Z,-1.40
2022-12-28T05:27:42.637Z,-1.40
2022-12-28T05:30:09.804Z,-1.40
2022-12-28T05:32:36.757Z,-1.40
2022-12-28T05:35:03.708Z,-1.40
2022-12-28T05:37:30.525Z,-1.40
2022-12-28T05:39:57.744Z,-1.40
2022-12-28T05:42:24.540Z,-1.40
2022-12-28T05:44:51.401Z,-1.40
2022-12-28T05:47:18.343Z,-1.40
2022-12-28T05:49:45.221Z,-1.50
2022-12-28T05:52:12.055Z,-1.40
2022-12-28T05:54:39.212Z,-1.40
2022-12-28T05:57:06.322Z,-1.50
2022-12-28T05:59:33.608Z,-1.50
2022-12-28T06:02:00.777Z,-1.50
2022-12-28T06:04:27.874Z,-1.50
2022-12-28T06:06:55.050Z,-1.50
2022-12-28T06:09:22.119Z,-1.50
2022-12-28T06:11:49.073Z,-1.50
2022-12-28T06:14:16.023Z,-1.50
2022-12-28T06:16:43.206Z,-1.50
2022-12-28T06:19:12.171Z,-1.50
2022-12-28T06:21:39.913Z,-1.50
2022-12-28T06:24:07.435Z,-1.50
2022-12-28T06:26:35.028Z,-1.50
2022-12-28T06:29:04.066Z,-1.50
2022-12-28T06:31:32.393Z,-1.60
2022-12-28T06:34:00.539Z,-1.50
2022-12-28T06:36:28.748Z,-1.60
2022-12-28T06:38:56.428Z,-1.60
2022-12-28T06:41:23.828Z,-1.50
2022-12-28T06:43:50.685Z,-1.50
2022-12-28T06:46:18.565Z,-1.50
2022-12-28T06:48:46.076Z,-1.50
2022-12-28T06:51:14.496Z,-1.50
2022-12-28T06:53:41.700Z,-1.50
2022-12-28T06:56:10.807Z,-1.50
2022-12-28T06:58:37.884Z,-1.50
2022-12-28T07:01:12.799Z,-1.50
2022-12-28T07:03:39.665Z,-1.60
2022-12-28T07:06:06.653Z,-1.50
2022-12-28T07:08:33.861Z,-1.50
2022-12-28T07:11:06.768Z,-1.50
2022-12-28T07:13:33.829Z,-1.50
2022-12-28T07:16:04.517Z,-1.50
2022-12-28T07:18:32.738Z,-1.40
2022-12-28T07:21:00.423Z,-1.40
2022-12-28T07:23:30.204Z,-1.40
2022-12-28T07:26:04.883Z,-1.40
2022-12-28T07:28:31.919Z,-1.40
2022-12-28T07:30:58.960Z,-1.30
2022-12-28T07:33:25.841Z,-1.30
2022-12-28T07:35:52.935Z,-1.30
2022-12-28T07:38:21.724Z,-1.20
2022-12-28T07:40:48.733Z,-1.20
2022-12-28T07:43:15.552Z,-1.20
2022-12-28T07:45:42.525Z,-1.30
2022-12-28T07:48:09.440Z,-1.20
2022-12-28T07:50:38.121Z,-1.20
2022-12-28T07:53:05.292Z,-1.20
2022-12-28T07:55:32.154Z,-1.30
2022-12-28T07:57:59.126Z,-1.20
2022-12-28T08:00:26.480Z,-1.20
2022-12-28T08:02:55.305Z,-1.20
2022-12-28T08:05:22.439Z,-1.20
2022-12-28T08:07:49.405Z,-1.10
2022-12-28T08:10:16.255Z,-1.10
2022-12-28T08:12:43.124Z,-1.10
2022-12-28T08:15:10.334Z,-1.10
2022-12-28T08:17:37.256Z,-1.10
2022-12-28T08:20:04.401Z,-1.10
2022-12-28T08:22:31.271Z,-1.10
2022-12-28T08:24:58.225Z,-1.00
2022-12-28T08:27:25.278Z,-1.00
2022-12-28T08:29:52.235Z,-1.00
2022-12-28T08:32:19.204Z,-0.90
2022-12-28T08:34:46.254Z,-0.90
2022-12-28T08:37:13.272Z,-0.90
2022-12-28T08:39:40.210Z,-0.90
2022-12-28T08:42:07.248Z,-0.80
2022-12-28T08:44:34.353Z,-0.80
2022-12-28T08:47:01.310Z,-0.80
2022-12-28T08:49:28.257Z,-0.70
2022-12-28T08:51:55.196Z,-0.70
2022-12-28T08:54:22.045Z,-0.70
2022-12-28T08:56:50.060Z,-0.70
2022-12-28T08:59:18.581Z,-0.70
2022-12-28T09:01:46.486Z,-0.60
2022-12-28T09:04:18.333Z,-0.60
2022-12-28T09:06:45.299Z,-0.60
2022-12-28T09:09:16.234Z,-0.60
2022-12-28T09:11:43.946Z,-0.50
2022-12-28T09:14:18.550Z,-0.50
2022-12-28T09:16:49.420Z,-0.50
2022-12-28T09:19:16.407Z,-0.60
2022-12-28T09:21:44.936Z,-0.50
2022-12-28T09:24:12.919Z,-0.50
2022-12-28T09:26:40.170Z,-0.50
2022-12-28T09:29:08.971Z,-0.50
2022-12-28T09:31:37.395Z,-0.50
2022-12-28T09:36:52.104Z,-0.40
2022-12-28T09:39:20.609Z,-0.40
2022-12-28T09:41:56.693Z,-0.40
2022-12-28T09:44:23.662Z,-0.40
2022-12-28T09:47:00.261Z,-0.40
2022-12-28T09:49:32.774Z,-0.40
2022-12-28T09:52:04.597Z,-0.30
2022-12-28T09:54:31.612Z,-0.30
2022-12-28T09:56:58.723Z,-0.20
2022-12-28T09:59:30.766Z,-0.20
2022-12-28T10:02:00.983Z,-0.20
2022-12-28T10:04:27.972Z,-0.10
2022-12-28T10:06:55.326Z,-0.10
2022-12-28T10:09:33.565Z,0.00
2022-12-28T10:12:11.231Z,0.00
2022-12-28T10:14:38.035Z,0.00
2022-12-28T10:17:07.423Z,0.00
2022-12-28T10:19:34.334Z,0.10
2022-12-28T10:22:02.710Z,0.10
2022-12-28T10:24:31.840Z,0.10
2022-12-28T10:27:00.090Z,0.20
2022-12-28T10:29:27.312Z,0.20
2022-12-28T10:32:00.240Z,0.20
2022-12-28T10:34:33.443Z,0.30
2022-12-28T10:37:14.019Z,0.30
2022-12-28T10:39:48.097Z,0.30
2022-12-28T10:42:41.201Z,0.30
2022-12-28T10:45:17.242Z,0.40
2022-12-28T10:47:46.242Z,0.40
2022-12-28T10:50:37.864Z,0.50
2022-12-28T10:53:05.055Z,0.50
2022-12-28T10:55:33.490Z,0.50
2022-12-28T10:58:34.495Z,0.50
2022-12-28T11:01:13.532Z,0.60
2022-12-28T11:03:58.806Z,0.70
2022-12-28T11:06:28.025Z,0.70
2022-12-28T11:09:03.044Z,0.70
2022-12-28T11:11:30.164Z,0.70
2022-12-28T11:14:00.280Z,0.80
2022-12-28T11:16:27.199Z,0.70
2022-12-28T11:18:54.333Z,0.70
2022-12-28T11:21:22.177Z,0.70
2022-12-28T11:23:49.884Z,0.80
2022-12-28T11:26:18.140Z,0.80
2022-12-28T11:28:46.098Z,0.80
2022-12-28T11:31:20.495Z,0.90
2022-12-28T11:33:50.187Z,0.80
2022-12-28T11:36:22.547Z,0.80
2022-12-28T11:38:50.945Z,0.80
2022-12-28T11:41:26.349Z,0.90
2022-12-28T11:43:57.923Z,0.80
2022-12-28T11:46:24.755Z,0.90
2022-12-28T11:48:54.631Z,0.90
2022-12-28T11:51:24.561Z,0.90
2022-12-28T11:54:03.798Z,0.80
2022-12-28T11:56:36.488Z,0.90
2022-12-28T11:59:04.932Z,0.90
2022-12-28T12:01:37.072Z,0.90
2022-12-28T12:04:04.004Z,0.90
2022-12-28T12:06:45.956Z,0.90
2022-12-28T12:09:38.348Z,0.90
2022-12-28T12:12:17.794Z,1.00
2022-12-28T12:14:49.459Z,0.90
2022-12-28T12:17:21.781Z,1.00
2022-12-28T12:19:50.734Z,1.00
2022-12-28T12:22:23.566Z,1.00
2022-12-28T12:24:50.350Z,1.10
2022-12-28T12:27:36.681Z,1.00
2022-12-28T12:30:05.896Z,1.10
2022-12-28T12:32:42.722Z,1.10
2022-12-28T12:35:14.047Z,1.10
2022-12-28T12:37:45.496Z,1.10
2022-12-28T12:40:24.462Z,1.10
2022-12-28T12:43:01.693Z,1.10
2022-12-28T12:45:35.422Z,1.10
2022-12-28T12:48:20.887Z,1.10
2022-12-28T12:51:05.896Z,1.10
2022-12-28T12:53:43.135Z,1.00
2022-12-28T12:56:20.646Z,1.00
2022-12-28T12:58:47.437Z,1.10
2022-12-28T13:01:23.250Z,1.10
2022-12-28T13:03:52.192Z,1.00
2022-12-28T13:06:24.420Z,1.00
2022-12-28T13:09:00.395Z,1.00
2022-12-28T13:11:29.559Z,1.00
2022-12-28T13:13:57.091Z,1.10
2022-12-28T13:16:25.891Z,1.10
2022-12-28T13:19:02.672Z,1.10
2022-12-28T13:21:31.264Z,1.10
2022-12-28T13:23:59.368Z,1.10
2022-12-28T13:26:28.073Z,1.10
2022-12-28T13:29:00.256Z,1.10
2022-12-28T13:31:33.405Z,1.10
2022-12-28T13:34:01.845Z,1.10
2022-12-28T13:36:28.767Z,1.10
2022-12-28T13:39:06.131Z,1.10
2022-12-28T13:41:34.716Z,1.00
2022-12-28T13:44:01.524Z,1.10
2022-12-28T13:46:28.621Z,1.10
2022-12-28T13:48:57.982Z,1.10
2022-12-28T13:51:25.746Z,1.00
2022-12-28T13:53:55.223Z,1.10
2022-12-28T13:56:22.807Z,1.10
2022-12-28T13:58:50.948Z,1.10
2022-12-28T14:01:19.690Z,1.10
2022-12-28T14:03:46.858Z,1.10
2022-12-28T14:06:15.445Z,1.10
2022-12-28T14:08:42.459Z,1.10
2022-12-28T14:11:09.998Z,1.10
2022-12-28T14:13:37.169Z,1.20
2022-12-28T14:16:04.948Z,1.10
2022-12-28T14:18:33.745Z,1.10
2022-12-28T14:21:01.625Z,1.20
2022-12-28T14:23:32.501Z,1.20
2022-12-28T14:26:00.296Z,1.20
2022-12-28T14:28:50.999Z,1.20
2022-12-28T14:31:22.167Z,1.20
2022-12-28T14:33:53.549Z,1.20
2022-12-28T14:36:22.072Z,1.20
2022-12-28T14:38:50.120Z,1.20
2022-12-28T14:41:18.034Z,1.20
2022-12-28T14:43:51.967Z,1.20
2022-12-28T14:46:29.099Z,1.20
2022-12-28T14:48:55.991Z,1.30
2022-12-28T14:51:24.273Z,1.30
2022-12-28T14:54:09.712Z,1.30
2022-12-28T14:56:36.694Z,1.30
2022-12-28T14:59:03.709Z,1.30
2022-12-28T15:01:44.430Z,1.30
2022-12-28T15:04:29.704Z,1.30
2022-12-28T15:06:56.685Z,1.30
2022-12-28T15:09:23.703Z,1.30
2022-12-28T15:12:08.083Z,1.30
2022-12-28T15:14:36.701Z,1.30
2022-12-28T15:17:03.561Z,1.30
2022-12-28T15:19:30.514Z,1.30
2022-12-28T15:21:57.447Z,1.40
2022-12-28T15:24:28.630Z,1.40
2022-12-28T15:27:00.399Z,1.40
2022-12-28T15:29:55.639Z,1.40
2022-12-28T15:32:13.982Z,1.40
2022-12-28T15:34:41.769Z,1.40
2022-12-28T15:37:08.632Z,1.40
2022-12-28T15:39:35.523Z,1.40
2022-12-28T15:42:02.358Z,1.40
2022-12-28T15:44:29.221Z,1.40
2022-12-28T15:46:56.158Z,1.40
2022-12-28T15:49:23.072Z,1.50
2022-12-28T15:51:50.093Z,1.50
2022-12-28T15:54:16.928Z,1.50
2022-12-28T15:56:43.785Z,1.40
2022-12-28T15:59:14.386Z,1.50
2022-12-28T16:01:43.196Z,1.40
2022-12-28T16:04:10.549Z,1.50
2022-12-28T16:06:43.879Z,1.50
2022-12-28T16:09:12.485Z,1.50
2022-12-28T16:11:39.420Z,1.50
2022-12-28T16:14:07.058Z,1.50
2022-12-28T16:16:35.498Z,1.50
2022-12-28T16:19:02.890Z,1.50
2022-12-28T16:21:29.915Z,1.50
2022-12-28T16:23:58.446Z,1.50
2022-12-28T16:26:25.533Z,1.50
2022-12-28T16:28:52.580Z,1.50
2022-12-28T16:31:30.081Z,1.50
2022-12-28T16:34:16.563Z,1.60
2022-12-28T16:36:45.316Z,1.60
2022-12-28T16:39:13.262Z,1.60
2022-12-28T16:41:40.223Z,1.60
2022-12-28T16:44:09.581Z,1.70
2022-12-28T16:46:36.619Z,1.60
2022-12-28T16:49:04.333Z,1.60
2022-12-28T16:51:31.606Z,1.70
2022-12-28T16:53:58.478Z,1.60
2022-12-28T16:56:25.420Z,1.70
2022-12-28T16:58:55.513Z,1.70
2022-12-28T17:01:22.437Z,1.70
2022-12-28T17:03:49.679Z,1.70
2022-12-28T17:06:16.657Z,1.70
2022-12-28T17:08:43.525Z,1.70
2022-12-28T17:11:11.443Z,1.70
2022-12-28T17:13:38.680Z,1.70
2022-12-28T17:16:06.297Z,1.70
2022-12-28T17:18:33.219Z,1.80
2022-12-28T17:21:04.945Z,1.70
2022-12-28T17:23:33.514Z,1.70
2022-12-28T17:26:00.359Z,1.70
2022-12-28T17:28:27.228Z,1.70
2022-12-28T17:31:02.956Z,1.70
2022-12-28T17:33:35.525Z,1.70
2022-12-28T17:36:06.040Z,1.70
2022-12-28T17:38:32.874Z,1.70
2022-12-28T17:40:59.712Z,1.70
2022-12-28T17:43:26.612Z,1.70
2022-12-28T17:45:53.476Z,1.70
2022-12-28T17:48:20.396Z,1.70
2022-12-28T17:50:47.273Z,1.60
2022-12-28T17:53:14.291Z,1.70
2022-12-28T17:55:41.127Z,1.70
2022-12-28T17:58:07.920Z,1.70
2022-12-28T18:00:34.733Z,1.70
2022-12-28T18:03:01.832Z,1.80
2022-12-28T18:05:30.506Z,1.80
2022-12-28T18:07:57.400Z,1.80
2022-12-28T18:10:24.359Z,1.80
2022-12-28T18:12:51.307Z,1.80
2022-12-28T18:15:18.108Z,1.80
2022-12-28T18:17:44.956Z,1.70
2022-12-28T18:20:11.906Z,1.70
2022-12-28T18:22:38.977Z,1.70
2022-12-28T18:25:06.088Z,1.80
2022-12-28T18:27:34.712Z,1.70
2022-12-28T18:30:02.573Z,1.70
2022-12-28T18:32:29.352Z,1.70
2022-12-28T18:34:56.218Z,1.70
2022-12-28T18:37:23.010Z,1.70
2022-12-28T18:39:50.000Z,1.60
2022-12-28T18:42:18.471Z,1.70
2022-12-28T18:44:48.539Z,1.70
2022-12-28T18:47:15.448Z,1.70
2022-12-28T18:49:46.880Z,1.70
2022-12-28T18:52:14.991Z,1.70
2022-12-28T18:54:41.817Z,1.70
2022-12-28T18:57:08.748Z,1.70
2022-12-28T18:59:36.780Z,1.70
2022-12-28T19:02:06.504Z,1.70
2022-12-28T19:04:34.125Z,1.70
2022-12-28T19:07:01.088Z,1.70
2022-12-28T19:09:27.906Z,1.80
2022-12-28T19:11:54.788Z,1.70
2022-12-28T19:14:21.651Z,1.80
2022-12-28T19:16:48.516Z,1.70
2022-12-28T19:19:17.365Z,1.80
2022-12-28T19:21:44.588Z,1.80
2022-12-28T19:24:18.408Z,1.70
2022-12-28T19:26:45.942Z,1.70
2022-12-28T19:29:13.510Z,1.80
2022-12-28T19:31:40.498Z,1.70
2022-12-28T19:34:07.678Z,1.80
2022-12-28T19:36:34.453Z,1.70
2022-12-28T19:39:01.323Z,1.70
2022-12-28T19:41:28.164Z,1.70
2022-12-28T19:43:55.078Z,1.70
2022-12-28T19:46:32.153Z,1.70
2022-12-28T19:48:59.795Z,1.70
2022-12-28T19:51:30.492Z,1.80
2022-12-28T19:53:58.972Z,1.80
2022-12-28T19:56:25.850Z,1.80
2022-12-28T19:58:53.799Z,1.80
2022-12-28T20:01:25.650Z,1.80
2022-12-28T20:03:54.282Z,1.70
2022-12-28T20:06:22.737Z,1.80
2022-12-28T20:08:51.135Z,1.80
2022-12-28T20:11:18.875Z,1.80
2022-12-28T20:13:49.773Z,1.80
2022-12-28T20:16:16.717Z,1.80
2022-12-28T20:18:47.201Z,1.80
2022-12-28T20:21:22.028Z,1.80
2022-12-28T20:23:49.562Z,1.70
2022-12-28T20:26:17.224Z,1.70
2022-12-28T20:28:44.245Z,1.80
2022-12-28T20:31:13.043Z,1.70
2022-12-28T20:33:40.237Z,1.70
2022-12-28T20:36:08.435Z,1.80
2022-12-28T20:38:35.326Z,1.70
2022-12-28T20:41:11.187Z,1.70
2022-12-28T20:43:37.997Z,1.80
2022-12-28T20:46:10.124Z,1.70
2022-12-28T20:48:36.956Z,1.70
2022-12-28T20:51:03.739Z,1.70
2022-12-28T20:53:30.536Z,1.70
2022-12-28T20:56:05.576Z,1.80
2022-12-28T20:58:32.405Z,1.70
2022-12-28T21:01:06.586Z,1.70
2022-12-28T21:03:33.493Z,1.70
2022-12-28T21:06:00.413Z,1.70
2022-12-28T21:08:30.824Z,1.60
2022-12-28T21:10:58.367Z,1.70
2022-12-28T21:13:25.234Z,1.60
2022-12-28T21:15:52.563Z,1.70
2022-12-28T21:18:19.868Z,1.70
2022-12-28T21:20:47.319Z,1.60
2022-12-28T21:23:14.790Z,1.60
2022-12-28T21:25:41.557Z,1.70
2022-12-28T21:28:08.402Z,1.70
2022-12-28T21:30:35.148Z,1.70
2022-12-28T21:33:01.967Z,1.70
2022-12-28T21:35:33.836Z,1.70
2022-12-28T21:38:01.378Z,1.70
2022-12-28T21:40:28.280Z,1.70
2022-12-28T21:42:55.041Z,1.70
2022-12-28T21:45:22.099Z,1.70
2022-12-28T21:47:49.002Z,1.70
2022-12-28T21:50:15.811Z,1.70
2022-12-28T21:52:42.744Z,1.70
2022-12-28T21:55:28.545Z,1.70
2022-12-28T21:57:55.375Z,1.70
2022-12-28T22:00:41.110Z,1.70
2022-12-28T22:03:26.462Z,1.70
2022-12-28T22:06:05.176Z,1.70
2022-12-28T22:08:51.169Z,1.70
2022-12-28T22:11:36.836Z,1.70
2022-12-28T22:14:04.188Z,1.70
2022-12-28T22:16:32.063Z,1.80
2022-12-28T22:19:03.314Z,1.80
2022-12-28T22:21:30.762Z,1.80
2022-12-28T22:23:57.548Z,1.70
2022-12-28T22:26:24.496Z,1.70
2022-12-28T22:28:51.468Z,1.70
2022-12-28T22:31:18.262Z,1.70
2022-12-28T22:33:45.304Z,1.70
2022-12-28T22:36:12.224Z,1.70
2022-12-28T22:38:39.196Z,1.70
2022-12-28T22:41:06.147Z,1.70
2022-12-28T22:43:32.999Z,1.70
2022-12-28T22:46:00.857Z,1.70
2022-12-28T22:48:27.766Z,1.80
2022-12-28T22:50:54.662Z,1.70
2022-12-28T22:53:21.489Z,1.80
2022-12-28T22:56:01.134Z,1.80
2022-12-28T22:58:28.264Z,1.80
2022-12-28T23:01:05.499Z,1.80
2022-12-28T23:03:32.507Z,1.80
2022-12-28T23:05:59.345Z,1.80
2022-12-28T23:08:26.139Z,1.80
2022-12-28T23:10:53.810Z,1.80
2022-12-28T23:13:20.764Z,1.90
2022-12-28T23:15:57.962Z,1.80
2022-12-28T23:18:43.697Z,1.80
2022-12-28T23:21:39.322Z,1.80
2022-12-28T23:24:25.237Z,1.80
2022-12-28T23:27:10.623Z,1.90
2022-12-28T23:29:37.538Z,1.80
2022-12-28T23:32:04.623Z,1.90
2022-12-28T23:34:31.475Z,1.90
2022-12-28T23:36:58.318Z,1.90
2022-12-28T23:39:25.133Z,1.90
2022-12-28T23:41:52.165Z,1.80
2022-12-28T23:44:20.561Z,1.90
2022-12-28T23:46:47.786Z,1.90
2022-12-28T23:49:15.340Z,1.90
2022-12-28T23:51:42.686Z,1.90
2022-12-28T23:54:14.713Z,1.90
2022-12-28T23:56:41.632Z,1.90
2022-12-28T23:59:08.646Z,1.90
